Share

Kingsland, AR

4:59 AM CDT on April 23, 2014 (GMT -0500)
Grider (KPBF) Elev 207 ft | 34.17 °N, 91.93 °W | Change Station

Current weather conditions updated 6 minutes ago

Clear
Clear
51 °F
Feels Like 51 °F
N
0
Wind Variable Wind from North
Sunrise 6:28 AM
Sunset 7:46 PM
Moon Last Quarter

Today is forecast to be Warmer than yesterday.

Pressure 29.98 in
Visibility 10.0 miles
Clouds Clear
Dew Point 50 °F
Humidity 96%
Rainfall 0.00 in
Snow Depth Not available.
UV 0 out of 16
Pollen 8.80 out of 12
Air Quality Not available.
Flu Activity Sporadic
METAR KPBF 230953Z AUTO 00000KT 10SM CLR 11/10 A2998 RMK AO2 SLP151 T01060100

More Conditions Fewer Conditions

Pressure 29.98 in
Visibility 10.0 miles
Clouds Clear
Dew Point 50 °F
Humidity 96%
Rainfall 0.00 in
Snow Depth Not available.
UV 0 out of 16
Pollen 8.80 out of 12
Air Quality Not available.
Flu Activity Sporadic
METAR KPBF 230953Z AUTO 00000KT 10SM CLR 11/10 A2998 RMK AO2 SLP151 T01060100

More Conditions Fewer Conditions

10-Day Weather Forecast

Almanac

Astronomy

Apr. 23, 2014 Rise Set
Actual Time 6:28 AM CDT 7:46 PM CDT
Civil Twilight 6:02 AM CDT 8:12 PM CDT
Nautical Twilight 5:31 AM CDT 8:44 PM CDT
Astronomical Twilight 4:59 AM CDT 9:16 PM CDT
Moon 2:43 AM CDT 2:11 PM CDT
Length of Visible Light 14h 10m
Length of Day
13h 17m
Tomorrow will be 1m 54s longer.
Last Quarter, 38% of the Moon is Illuminated
Today
Last Quarter
Apr 29
New
May 6
First Quarter
May 14
Full
May 21
Last Quarter

Today's Extremes

State Highs State Lows

Community

  • April Sunset
    April Sunset
  • Waiting..
    Waiting..
  • Sunset...
    Sunset...
  • Happy outdoor day
    Happy outdoor day
  • mystic afternoon....
    mystic afternoon....

WunderPhotos

Upload Photos

1,704,235 photos uploaded!

WunderBlogs® & News

By Dr. Jeff Masters
Director of Meteorology, Weather Underground
By Kari Strenfel
Meteorologist, Weather Underground
By Christopher C. Burt
Weather Historian, Weather Underground
April 23, 2014
April 22, 2014
April 22, 2014

Nearby

Snow Depth

Station Depth Elevation
No new snow has been reported.

Coastal Water Temperatures

Place Temperature
No Stations Reporting

Earthquake Activity

City Distance Mag. Time & Date
No recent earthquake activity has been reported nearby.
Minimum magnitude displayed is 2.5.

Nearby Weather Stations

Station Location Temp. Dew Point Humidity Wind Precip. Elev Updated Type
MesoWest THRNTN , Thornton, AR 50 °F - - North  at  - 0.00 in / hr 303 ft 3:25 AM CDT MADIS

Show More Stations Show Fewer Stations

What do you think?

We're not finished. Please let us know what you like, what you don't like, and what you are still missing.